Time;durP1;ratioP1;P1;durP2;ratioP2;P2;SDS_P1;SDS_P2;PMS_P1;PMS_P2;Temp;Humidity;BMP_temperature;BMP_pressure;BME280_temperature;BME280_humidity;BME280_pressure;Samples;Min_cycle;Max_cycle;Signal;HPM_P1;HPM_P2
2023/11/29 00:01:20;;;;;;;12.68;7.15;;;;;;;;;;5063658;28;20040;-79
2023/11/29 00:03:45;;;;;;;10.63;8.07;;;;;;;;;;5064675;28;20390;-79
2023/11/29 00:06:10;;;;;;;13.18;8.88;;;;;;;;;;5066087;28;20025;-79
2023/11/29 00:08:36;;;;;;;11.13;8.43;;;;;;;;;;5095804;28;20043;-79
2023/11/29 00:11:01;;;;;;;13.82;10.13;;;;;;;;;;5066211;28;20028;-79
2023/11/29 00:13:26;;;;;;;14.05;10.02;;;;;;;;;;5066863;28;20043;-79
2023/11/29 00:15:52;;;;;;;15.38;10.35;;;;;;;;;;5065850;28;20025;-79
2023/11/29 00:18:17;;;;;;;12.95;10.02;;;;;;;;;;5065271;28;20020;-79
2023/11/29 00:20:44;;;;;;;13.55;10.23;;;;;;;;;;5063855;28;20036;-78
2023/11/29 00:23:10;;;;;;;14.48;9.40;;;;;;;;;;5061530;28;20035;-79
2023/11/29 00:25:35;;;;;;;13.23;9.70;;;;;;;;;;5060401;28;20032;-79
2023/11/29 00:28:01;;;;;;;15.30;10.35;;;;;;;;;;5048013;28;20037;-82
2023/11/29 00:30:28;;;;;;;13.27;9.80;;;;;;;;;;5061215;28;20485;-81
2023/11/29 00:32:54;;;;;;;14.55;10.88;;;;;;;;;;5063653;28;20115;-81
2023/11/29 00:35:19;;;;;;;14.45;9.77;;;;;;;;;;5061805;28;20108;-81
2023/11/29 00:37:45;;;;;;;14.05;10.35;;;;;;;;;;5062868;28;20024;-82
2023/11/29 00:40:10;;;;;;;12.15;9.35;;;;;;;;;;5062977;28;20061;-81
2023/11/29 00:42:35;;;;;;;14.82;10.95;;;;;;;;;;5057109;28;20029;-81
2023/11/29 00:45:01;;;;;;;14.75;10.63;;;;;;;;;;5065452;28;20040;-82
2023/11/29 00:47:27;;;;;;;14.48;10.75;;;;;;;;;;5059870;28;20032;-81
2023/11/29 00:49:52;;;;;;;13.93;10.00;;;;;;;;;;5066026;28;20074;-81
2023/11/29 00:52:18;;;;;;;9.73;6.85;;;;;;;;;;5060323;28;20024;-81
2023/11/29 00:54:43;;;;;;;9.38;6.22;;;;;;;;;;5066948;28;20446;-82
2023/11/29 00:57:08;;;;;;;8.65;5.95;;;;;;;;;;5060934;28;20048;-81
2023/11/29 00:59:34;;;;;;;9.63;6.75;;;;;;;;;;5059440;28;20029;-82
2023/11/29 01:01:59;;;;;;;9.35;6.40;;;;;;;;;;5058223;28;20068;-82
2023/11/29 01:04:24;;;;;;;10.07;6.60;;;;;;;;;;5061401;28;20041;-81
2023/11/29 01:06:50;;;;;;;9.15;6.65;;;;;;;;;;5066327;28;20037;-81
2023/11/29 01:09:15;;;;;;;10.07;6.63;;;;;;;;;;5063480;28;20052;-81
2023/11/29 01:11:41;;;;;;;9.50;6.80;;;;;;;;;;5076452;28;20025;-81
2023/11/29 01:14:06;;;;;;;9.75;6.85;;;;;;;;;;5063196;28;20021;-82
2023/11/29 01:16:32;;;;;;;10.88;7.70;;;;;;;;;;5063077;28;20024;-82
2023/11/29 01:18:58;;;;;;;11.63;7.38;;;;;;;;;;5067122;28;20025;-81
2023/11/29 01:21:24;;;;;;;10.93;6.72;;;;;;;;;;5063671;28;20020;-81
2023/11/29 01:23:49;;;;;;;9.57;6.50;;;;;;;;;;5063732;28;20458;-81
2023/11/29 01:26:14;;;;;;;9.05;6.75;;;;;;;;;;5063824;28;20030;-81
2023/11/29 01:28:40;;;;;;;8.63;6.18;;;;;;;;;;5089440;28;20445;-80
2023/11/29 01:31:06;;;;;;;7.90;6.03;;;;;;;;;;5061062;28;20033;-80
2023/11/29 01:33:32;;;;;;;9.00;5.90;;;;;;;;;;5055441;28;20032;-80
2023/11/29 01:35:58;;;;;;;8.07;6.05;;;;;;;;;;5067585;28;20067;-80
2023/11/29 01:38:23;;;;;;;8.48;6.03;;;;;;;;;;5058648;28;20021;-80
2023/11/29 01:40:49;;;;;;;10.05;6.53;;;;;;;;;;5064937;28;20103;-80
2023/11/29 01:43:14;;;;;;;8.35;6.00;;;;;;;;;;5068477;28;20020;-80
2023/11/29 01:45:39;;;;;;;8.18;6.20;;;;;;;;;;5066359;28;20025;-79
2023/11/29 01:48:05;;;;;;;7.45;5.15;;;;;;;;;;5066259;28;20021;-80
2023/11/29 01:50:35;;;;;;;7.30;4.90;;;;;;;;;;5068735;28;20441;-80
2023/11/29 01:53:01;;;;;;;7.13;4.68;;;;;;;;;;5070705;28;20097;-80
2023/11/29 01:55:27;;;;;;;6.57;4.70;;;;;;;;;;5066160;28;20436;-80
2023/11/29 01:57:54;;;;;;;5.90;4.13;;;;;;;;;;5064820;28;20029;-80
2023/11/29 02:00:20;;;;;;;5.88;4.32;;;;;;;;;;5065445;28;20036;-79
2023/11/29 02:02:47;;;;;;;6.22;4.57;;;;;;;;;;5063123;28;20113;-80
2023/11/29 02:05:14;;;;;;;6.00;4.13;;;;;;;;;;5063119;28;20032;-80
2023/11/29 02:07:40;;;;;;;6.32;4.28;;;;;;;;;;5064092;28;20104;-79
2023/11/29 02:10:06;;;;;;;6.13;4.15;;;;;;;;;;5068720;28;20581;-80
2023/11/29 02:12:32;;;;;;;6.00;4.28;;;;;;;;;;5059778;28;20033;-80
2023/11/29 02:14:58;;;;;;;7.47;4.65;;;;;;;;;;5061446;28;20052;-80
2023/11/29 02:17:23;;;;;;;6.15;4.53;;;;;;;;;;5062469;28;20048;-79
2023/11/29 02:19:51;;;;;;;7.93;5.70;;;;;;;;;;5064938;28;20441;-80
2023/11/29 02:22:17;;;;;;;8.32;6.75;;;;;;;;;;5066710;28;20021;-80
2023/11/29 02:24:42;;;;;;;9.88;7.25;;;;;;;;;;5064304;28;20394;-80
2023/11/29 02:27:11;;;;;;;11.00;8.07;;;;;;;;;;5063436;28;20121;-80
2023/11/29 02:29:38;;;;;;;11.40;8.27;;;;;;;;;;5069530;28;20046;-80
2023/11/29 02:32:04;;;;;;;10.80;8.80;;;;;;;;;;5061855;28;20466;-80
2023/11/29 02:34:30;;;;;;;11.90;8.48;;;;;;;;;;5066761;28;20025;-80
2023/11/29 02:36:56;;;;;;;11.73;8.75;;;;;;;;;;5068953;28;20031;-80
2023/11/29 02:39:22;;;;;;;10.90;7.93;;;;;;;;;;5065956;28;20394;-80
2023/11/29 02:41:47;;;;;;;11.55;7.45;;;;;;;;;;5068190;28;20035;-80
2023/11/29 02:44:13;;;;;;;13.02;8.38;;;;;;;;;;5065325;28;20032;-80
2023/11/29 02:46:42;;;;;;;10.90;7.93;;;;;;;;;;5069882;28;20409;-80
2023/11/29 02:49:08;;;;;;;11.65;7.82;;;;;;;;;;5064631;28;20556;-79
2023/11/29 02:51:33;;;;;;;12.57;9.55;;;;;;;;;;5060751;28;20119;-80
2023/11/29 02:53:59;;;;;;;11.63;9.10;;;;;;;;;;5065040;28;20024;-80
2023/11/29 02:56:25;;;;;;;12.57;8.82;;;;;;;;;;5068593;28;20021;-80
2023/11/29 02:58:51;;;;;;;12.77;9.20;;;;;;;;;;5071443;28;20020;-80
2023/11/29 03:01:16;;;;;;;12.23;9.15;;;;;;;;;;5066968;28;20537;-80
2023/11/29 03:03:41;;;;;;;13.75;9.68;;;;;;;;;;5068712;28;20085;-80
2023/11/29 03:06:07;;;;;;;13.75;9.82;;;;;;;;;;5064311;28;20389;-80
2023/11/29 03:08:32;;;;;;;12.52;8.85;;;;;;;;;;5067361;28;20059;-80
2023/11/29 03:10:57;;;;;;;11.55;8.35;;;;;;;;;;5067798;28;20020;-79
2023/11/29 03:13:27;;;;;;;11.52;7.93;;;;;;;;;;5064393;28;20025;-80
2023/11/29 03:15:55;;;;;;;10.43;7.65;;;;;;;;;;5058867;28;20070;-80
2023/11/29 03:18:21;;;;;;;9.45;6.97;;;;;;;;;;5067863;28;20107;-80
2023/11/29 03:20:46;;;;;;;10.10;7.22;;;;;;;;;;5063739;28;20107;-80
2023/11/29 03:23:12;;;;;;;10.10;6.90;;;;;;;;;;5065698;28;20364;-80
2023/11/29 03:25:37;;;;;;;9.65;6.75;;;;;;;;;;5078568;28;20097;-79
2023/11/29 03:28:03;;;;;;;8.75;6.20;;;;;;;;;;5063086;28;20035;-79
2023/11/29 03:30:28;;;;;;;10.77;6.70;;;;;;;;;;5061270;28;20032;-79
2023/11/29 03:32:53;;;;;;;8.30;5.97;;;;;;;;;;5061385;28;20082;-80
2023/11/29 03:35:19;;;;;;;9.20;5.93;;;;;;;;;;5060471;28;20021;-79
2023/11/29 03:37:44;;;;;;;7.93;5.85;;;;;;;;;;5058281;28;20028;-80
2023/11/29 03:40:10;;;;;;;8.75;6.05;;;;;;;;;;5068040;28;20031;-80
2023/11/29 03:42:35;;;;;;;7.43;5.63;;;;;;;;;;5059586;28;20491;-79
2023/11/29 03:45:02;;;;;;;9.35;5.43;;;;;;;;;;5067371;28;20094;-80
2023/11/29 03:47:28;;;;;;;8.55;5.60;;;;;;;;;;5064970;28;20094;-80
2023/11/29 03:49:53;;;;;;;7.85;5.60;;;;;;;;;;5058008;28;20024;-79
2023/11/29 03:52:19;;;;;;;8.18;6.05;;;;;;;;;;5062364;28;20401;-80
2023/11/29 03:54:45;;;;;;;8.10;5.93;;;;;;;;;;5067276;28;20090;-80
2023/11/29 03:57:10;;;;;;;9.07;5.53;;;;;;;;;;5064422;28;20063;-80
2023/11/29 03:59:35;;;;;;;8.25;6.20;;;;;;;;;;5064703;28;20482;-80
2023/11/29 04:02:01;;;;;;;9.18;6.50;;;;;;;;;;5066687;28;20025;-80
2023/11/29 04:04:26;;;;;;;8.05;5.80;;;;;;;;;;5066655;28;20043;-79
2023/11/29 04:06:51;;;;;;;10.25;5.40;;;;;;;;;;5064677;28;20025;-80
2023/11/29 04:09:17;;;;;;;8.57;5.35;;;;;;;;;;5066027;28;20052;-80
2023/11/29 04:11:45;;;;;;;6.93;4.70;;;;;;;;;;5058712;28;20028;-80
2023/11/29 04:14:10;;;;;;;9.70;4.75;;;;;;;;;;5064570;28;20520;-80
2023/11/29 04:16:35;;;;;;;6.30;4.30;;;;;;;;;;5061635;28;20036;-80
2023/11/29 04:19:01;;;;;;;7.00;4.75;;;;;;;;;;5065458;28;20017;-80
2023/11/29 04:21:29;;;;;;;8.77;5.43;;;;;;;;;;5060170;28;20067;-79
2023/11/29 04:23:55;;;;;;;8.38;5.43;;;;;;;;;;5063169;28;20028;-80
2023/11/29 04:26:29;;;;;;;8.20;5.75;;;;;;;;;;5060545;28;20029;-80
2023/11/29 04:28:55;;;;;;;8.55;6.28;;;;;;;;;;5080766;28;20031;-79
2023/11/29 04:31:20;;;;;;;9.15;6.80;;;;;;;;;;5062250;28;20036;-79
2023/11/29 04:33:46;;;;;;;9.70;7.30;;;;;;;;;;5063645;28;20474;-80
2023/11/29 04:36:11;;;;;;;11.00;7.70;;;;;;;;;;5066329;28;20541;-79
2023/11/29 04:38:37;;;;;;;10.07;7.00;;;;;;;;;;5061652;28;20024;-79
2023/11/29 04:41:03;;;;;;;12.43;7.38;;;;;;;;;;5062576;28;20173;-80
2023/11/29 04:43:29;;;;;;;10.13;6.93;;;;;;;;;;5059763;28;20068;-80
2023/11/29 04:45:54;;;;;;;11.65;6.70;;;;;;;;;;5065391;28;20509;-80
2023/11/29 04:48:21;;;;;;;11.23;6.68;;;;;;;;;;5066714;28;20024;-80
2023/11/29 04:50:47;;;;;;;10.95;7.35;;;;;;;;;;5065855;28;20032;-79
2023/11/29 04:53:12;;;;;;;9.60;7.40;;;;;;;;;;5061054;28;20035;-80
2023/11/29 04:55:38;;;;;;;12.85;7.88;;;;;;;;;;5063779;28;20040;-79
2023/11/29 04:58:03;;;;;;;7.70;5.38;;;;;;;;;;5075573;28;20625;-81
2023/11/29 05:00:28;;;;;;;9.52;6.53;;;;;;;;;;5063385;28;20067;-82
2023/11/29 05:02:54;;;;;;;11.65;7.45;;;;;;;;;;5064060;28;20036;-81
2023/11/29 05:05:19;;;;;;;10.63;7.20;;;;;;;;;;5062995;28;20035;-81
2023/11/29 05:07:44;;;;;;;10.30;7.15;;;;;;;;;;5062298;28;20494;-79
2023/11/29 05:10:10;;;;;;;10.43;6.90;;;;;;;;;;5064840;28;20042;-79
2023/11/29 05:12:36;;;;;;;10.40;7.25;;;;;;;;;;5061566;28;20048;-79
2023/11/29 05:15:02;;;;;;;9.52;6.43;;;;;;;;;;5070685;28;20551;-79
2023/11/29 05:17:27;;;;;;;10.05;7.47;;;;;;;;;;5063282;28;20029;-82
2023/11/29 05:19:53;;;;;;;9.95;6.30;;;;;;;;;;5067924;28;20032;-82
2023/11/29 05:22:18;;;;;;;8.48;6.28;;;;;;;;;;5064520;28;20136;-82
2023/11/29 05:24:43;;;;;;;8.98;6.28;;;;;;;;;;5064336;28;20028;-82
2023/11/29 05:27:09;;;;;;;10.02;6.43;;;;;;;;;;5063538;28;20033;-82
2023/11/29 05:29:35;;;;;;;8.10;6.57;;;;;;;;;;5069262;28;20048;-81
2023/11/29 05:32:00;;;;;;;9.77;6.70;;;;;;;;;;5071362;28;20564;-82
2023/11/29 05:34:27;;;;;;;12.35;6.85;;;;;;;;;;5063540;28;20036;-82
2023/11/29 05:36:53;;;;;;;8.60;5.90;;;;;;;;;;5069767;28;20025;-82
2023/11/29 05:39:19;;;;;;;9.77;5.68;;;;;;;;;;5067393;28;20091;-81
2023/11/29 05:41:45;;;;;;;9.40;5.55;;;;;;;;;;5071221;28;20029;-81
2023/11/29 05:44:11;;;;;;;7.57;5.20;;;;;;;;;;5069058;28;20024;-81
2023/11/29 05:46:36;;;;;;;6.65;4.63;;;;;;;;;;5065735;28;20029;-81
2023/11/29 05:49:02;;;;;;;7.65;4.15;;;;;;;;;;5060943;28;20037;-81
2023/11/29 05:51:28;;;;;;;6.35;3.53;;;;;;;;;;5063705;28;20182;-81
2023/11/29 05:53:53;;;;;;;4.72;2.72;;;;;;;;;;5067459;28;20111;-81
2023/11/29 05:56:22;;;;;;;5.60;2.40;;;;;;;;;;5066785;28;20244;-82
2023/11/29 05:58:48;;;;;;;5.60;2.45;;;;;;;;;;5066933;28;20039;-81
2023/11/29 06:01:13;;;;;;;5.90;2.50;;;;;;;;;;5067064;28;20389;-81
2023/11/29 06:03:38;;;;;;;5.10;2.20;;;;;;;;;;5064225;28;20032;-81
2023/11/29 06:06:04;;;;;;;4.90;2.53;;;;;;;;;;5064490;28;20033;-81
2023/11/29 06:08:29;;;;;;;4.05;2.40;;;;;;;;;;5061599;28;20398;-81
2023/11/29 06:10:55;;;;;;;5.38;2.13;;;;;;;;;;5071411;28;20043;-81
2023/11/29 06:13:22;;;;;;;3.75;1.40;;;;;;;;;;5065341;28;20035;-81
2023/11/29 06:15:49;;;;;;;1.73;1.00;;;;;;;;;;5066726;28;20038;-81
2023/11/29 06:18:15;;;;;;;1.70;0.88;;;;;;;;;;5067864;28;20494;-81
2023/11/29 06:20:41;;;;;;;2.42;0.50;;;;;;;;;;5063392;28;20093;-81
2023/11/29 06:23:07;;;;;;;1.85;0.65;;;;;;;;;;5079541;28;20479;-82
2023/11/29 06:25:34;;;;;;;2.53;0.73;;;;;;;;;;5068267;28;20020;-81
2023/11/29 06:27:59;;;;;;;3.05;0.80;;;;;;;;;;5064559;28;20032;-82
2023/11/29 06:30:25;;;;;;;2.47;0.70;;;;;;;;;;5067560;28;20029;-82
2023/11/29 06:32:50;;;;;;;3.55;1.55;;;;;;;;;;5066875;28;20470;-82
2023/11/29 06:35:16;;;;;;;2.72;1.40;;;;;;;;;;5067874;28;20478;-81
2023/11/29 06:37:47;;;;;;;3.83;1.30;;;;;;;;;;5070960;28;20021;-81
2023/11/29 06:40:16;;;;;;;3.00;1.00;;;;;;;;;;5065910;28;20542;-82
2023/11/29 06:42:44;;;;;;;2.45;1.08;;;;;;;;;;5061721;28;20033;-81
2023/11/29 06:45:10;;;;;;;2.90;1.02;;;;;;;;;;5064930;28;20032;-81
2023/11/29 06:47:36;;;;;;;2.17;0.70;;;;;;;;;;5070588;28;20039;-81
2023/11/29 06:50:05;;;;;;;2.83;1.10;;;;;;;;;;5059745;28;20032;-81
2023/11/29 06:52:33;;;;;;;1.77;0.75;;;;;;;;;;5067563;28;20028;-81
2023/11/29 06:54:59;;;;;;;5.50;1.20;;;;;;;;;;5069024;28;20032;-81
2023/11/29 06:57:24;;;;;;;2.08;1.20;;;;;;;;;;5080672;28;20021;-81
2023/11/29 06:59:51;;;;;;;1.73;0.60;;;;;;;;;;5064838;28;20033;-81
2023/11/29 07:02:17;;;;;;;2.40;0.80;;;;;;;;;;5064368;28;20482;-81
2023/11/29 07:04:43;;;;;;;4.00;0.60;;;;;;;;;;5062185;28;20021;-81
2023/11/29 07:07:09;;;;;;;1.30;0.50;;;;;;;;;;5066097;28;20032;-81
2023/11/29 07:09:34;;;;;;;5.32;0.55;;;;;;;;;;5087561;28;20028;-81
2023/11/29 07:12:01;;;;;;;3.90;0.63;;;;;;;;;;5069833;28;20028;-81
2023/11/29 07:14:26;;;;;;;4.10;0.65;;;;;;;;;;5071575;28;20029;-81
2023/11/29 07:16:52;;;;;;;3.30;0.52;;;;;;;;;;5073030;28;20035;-79
2023/11/29 07:19:18;;;;;;;4.22;0.80;;;;;;;;;;5067221;28;20032;-79
2023/11/29 07:21:43;;;;;;;7.63;1.25;;;;;;;;;;5067970;28;20478;-79
2023/11/29 07:24:09;;;;;;;3.42;0.43;;;;;;;;;;5063588;28;20035;-79
2023/11/29 07:26:34;;;;;;;2.08;0.55;;;;;;;;;;5065609;28;20471;-79
2023/11/29 07:29:00;;;;;;;2.85;0.80;;;;;;;;;;5067335;28;20060;-79
2023/11/29 07:31:25;;;;;;;2.03;0.47;;;;;;;;;;5067739;28;20035;-79
2023/11/29 07:33:51;;;;;;;2.83;0.55;;;;;;;;;;5050605;28;20531;-79
2023/11/29 07:36:17;;;;;;;1.80;0.63;;;;;;;;;;5064656;28;20028;-79
2023/11/29 07:38:42;;;;;;;5.22;0.70;;;;;;;;;;5063575;28;20020;-78
2023/11/29 07:41:09;;;;;;;3.50;0.70;;;;;;;;;;5063986;28;20043;-78
2023/11/29 07:43:34;;;;;;;2.70;0.60;;;;;;;;;;5062793;28;20025;-78
2023/11/29 07:46:00;;;;;;;3.83;0.70;;;;;;;;;;5062311;28;20056;-78
2023/11/29 07:48:25;;;;;;;1.92;0.60;;;;;;;;;;5064132;28;20579;-78
2023/11/29 07:50:52;;;;;;;3.00;0.82;;;;;;;;;;5065290;28;20474;-78
2023/11/29 07:53:18;;;;;;;2.35;0.60;;;;;;;;;;5063154;28;20398;-78
2023/11/29 07:55:44;;;;;;;6.50;1.02;;;;;;;;;;5063181;28;20028;-78
2023/11/29 07:58:09;;;;;;;8.38;1.20;;;;;;;;;;5065211;28;20012;-79
2023/11/29 08:00:35;;;;;;;5.28;1.20;;;;;;;;;;5065509;28;20253;-78
2023/11/29 08:03:00;;;;;;;3.88;0.77;;;;;;;;;;5068250;28;20028;-78
2023/11/29 08:05:27;;;;;;;4.82;1.38;;;;;;;;;;5064732;28;20037;-79
2023/11/29 08:07:55;;;;;;;2.72;0.73;;;;;;;;;;5068542;28;20033;-78
2023/11/29 08:10:22;;;;;;;6.63;0.80;;;;;;;;;;5071075;28;20024;-78
2023/11/29 08:12:47;;;;;;;2.38;0.73;;;;;;;;;;5067184;28;20123;-78
2023/11/29 08:15:13;;;;;;;3.08;0.60;;;;;;;;;;5060625;28;20566;-78
2023/11/29 08:17:38;;;;;;;4.45;0.80;;;;;;;;;;5060851;28;20031;-80
2023/11/29 08:20:05;;;;;;;1.77;0.80;;;;;;;;;;5067254;28;20107;-79
2023/11/29 08:22:32;;;;;;;2.92;0.63;;;;;;;;;;5067176;28;20025;-79
2023/11/29 08:24:58;;;;;;;3.20;0.77;;;;;;;;;;5066269;28;20090;-78
2023/11/29 08:27:24;;;;;;;4.13;1.00;;;;;;;;;;5065395;28;20024;-78
2023/11/29 08:29:50;;;;;;;2.92;0.80;;;;;;;;;;5067948;28;20035;-78
2023/11/29 08:32:16;;;;;;;4.20;0.90;;;;;;;;;;5065531;28;20032;-78
2023/11/29 08:34:42;;;;;;;6.53;1.02;;;;;;;;;;5069997;28;20029;-78
2023/11/29 08:37:07;;;;;;;2.58;0.80;;;;;;;;;;5060941;28;20020;-78
2023/11/29 08:39:34;;;;;;;4.38;1.08;;;;;;;;;;5062533;28;20468;-79
2023/11/29 08:41:59;;;;;;;2.70;1.05;;;;;;;;;;5060298;28;20021;-78
2023/11/29 08:44:24;;;;;;;3.30;0.93;;;;;;;;;;5068506;28;20498;-78
2023/11/29 08:46:50;;;;;;;3.58;1.00;;;;;;;;;;5062382;28;20028;-78
2023/11/29 08:49:15;;;;;;;3.17;1.10;;;;;;;;;;5066925;28;20571;-78
2023/11/29 08:51:42;;;;;;;2.75;1.00;;;;;;;;;;5066313;28;20177;-78
2023/11/29 08:54:07;;;;;;;3.67;1.30;;;;;;;;;;5068455;28;20020;-81
2023/11/29 08:56:33;;;;;;;3.30;1.33;;;;;;;;;;5067461;28;20082;-79
2023/11/29 08:58:59;;;;;;;5.90;1.05;;;;;;;;;;5068304;28;20029;-83
2023/11/29 09:01:24;;;;;;;7.18;1.40;;;;;;;;;;5059519;28;20033;-83
2023/11/29 09:03:50;;;;;;;6.47;1.48;;;;;;;;;;5052716;28;20166;-83
2023/11/29 09:06:16;;;;;;;3.90;1.55;;;;;;;;;;5063699;28;20482;-83
2023/11/29 09:08:42;;;;;;;6.03;1.80;;;;;;;;;;5068143;28;20028;-83
2023/11/29 09:11:08;;;;;;;3.17;1.20;;;;;;;;;;5073305;28;20544;-83
2023/11/29 09:13:35;;;;;;;2.92;1.40;;;;;;;;;;5073166;28;20032;-83
2023/11/29 09:16:00;;;;;;;4.38;1.67;;;;;;;;;;5069417;28;20056;-83
2023/11/29 09:18:26;;;;;;;4.25;1.60;;;;;;;;;;5069735;28;20043;-83
2023/11/29 09:20:51;;;;;;;5.78;2.17;;;;;;;;;;5070535;28;20099;-83
2023/11/29 09:23:17;;;;;;;4.63;1.67;;;;;;;;;;5064847;28;20503;-83
2023/11/29 09:25:43;;;;;;;3.58;1.50;;;;;;;;;;5073055;28;20033;-83
2023/11/29 09:28:13;;;;;;;4.05;1.75;;;;;;;;;;5068395;28;20488;-83
2023/11/29 09:30:40;;;;;;;3.85;1.40;;;;;;;;;;5071659;28;20035;-83
2023/11/29 09:33:06;;;;;;;3.20;1.40;;;;;;;;;;5068656;28;20059;-83
2023/11/29 09:35:31;;;;;;;5.15;1.70;;;;;;;;;;5066742;28;20048;-83
2023/11/29 09:37:57;;;;;;;6.78;1.92;;;;;;;;;;5069217;28;20020;-83
2023/11/29 09:40:22;;;;;;;5.82;1.90;;;;;;;;;;5064948;28;20107;-83
2023/11/29 09:42:48;;;;;;;4.40;1.65;;;;;;;;;;5071347;28;20032;-82
2023/11/29 09:45:21;;;;;;;2.90;1.42;;;;;;;;;;5074060;28;20367;-83
2023/11/29 09:47:46;;;;;;;8.82;1.70;;;;;;;;;;5101010;28;20040;-78
2023/11/29 09:50:12;;;;;;;4.32;1.75;;;;;;;;;;5073231;28;20033;-78
2023/11/29 09:52:38;;;;;;;3.45;1.80;;;;;;;;;;5068335;28;20474;-78
2023/11/29 09:55:04;;;;;;;3.83;1.60;;;;;;;;;;5069176;28;20115;-78
2023/11/29 09:57:30;;;;;;;5.00;1.70;;;;;;;;;;5065089;28;20028;-78
2023/11/29 09:59:56;;;;;;;4.60;1.52;;;;;;;;;;5067681;28;20555;-78
2023/11/29 10:02:22;;;;;;;3.95;1.73;;;;;;;;;;5071484;28;20032;-79
2023/11/29 10:04:48;;;;;;;7.03;1.80;;;;;;;;;;5068643;28;20494;-78
2023/11/29 10:07:14;;;;;;;3.75;1.80;;;;;;;;;;5066826;28;20466;-78
2023/11/29 10:09:41;;;;;;;3.40;1.70;;;;;;;;;;5072062;28;20025;-78
2023/11/29 10:12:07;;;;;;;7.45;2.00;;;;;;;;;;5063975;28;20016;-78
2023/11/29 10:14:33;;;;;;;5.95;2.15;;;;;;;;;;5066734;28;20393;-78
2023/11/29 10:16:58;;;;;;;4.22;1.83;;;;;;;;;;5063041;28;20029;-78
2023/11/29 10:19:25;;;;;;;5.03;1.90;;;;;;;;;;5067094;28;20025;-78
2023/11/29 10:21:53;;;;;;;6.55;2.17;;;;;;;;;;5060550;28;20092;-78
2023/11/29 10:24:25;;;;;;;6.57;1.83;;;;;;;;;;5062775;28;20043;-78
2023/11/29 10:26:51;;;;;;;5.93;1.80;;;;;;;;;;5065242;28;20028;-78
2023/11/29 10:29:17;;;;;;;5.95;2.28;;;;;;;;;;5067464;28;20379;-78
2023/11/29 10:31:42;;;;;;;4.00;2.03;;;;;;;;;;5065470;28;20040;-78
2023/11/29 10:34:10;;;;;;;4.90;2.10;;;;;;;;;;5068676;28;20025;-78
2023/11/29 10:36:39;;;;;;;7.25;1.90;;;;;;;;;;5066083;28;20025;-79
2023/11/29 10:39:11;;;;;;;5.93;2.50;;;;;;;;;;5070475;28;20024;-78
2023/11/29 10:41:47;;;;;;;6.07;2.35;;;;;;;;;;5069578;28;20032;-78
2023/11/29 10:44:13;;;;;;;10.70;2.40;;;;;;;;;;5069650;28;20031;-78
2023/11/29 10:46:40;;;;;;;6.88;2.40;;;;;;;;;;5067027;28;20155;-78
2023/11/29 10:49:10;;;;;;;5.45;2.30;;;;;;;;;;5104485;28;20030;-78
2023/11/29 10:51:35;;;;;;;5.10;2.28;;;;;;;;;;5071375;28;20028;-78
2023/11/29 10:54:02;;;;;;;4.75;2.22;;;;;;;;;;5071095;28;20546;-78
2023/11/29 10:56:31;;;;;;;6.47;2.20;;;;;;;;;;5069806;28;20039;-83
2023/11/29 10:59:20;;;;;;;7.03;2.20;;;;;;;;;;5068477;28;20016;-78
2023/11/29 11:01:45;;;;;;;6.57;2.17;;;;;;;;;;5069048;28;20100;-78
2023/11/29 11:04:11;;;;;;;5.63;2.40;;;;;;;;;;5068077;28;20501;-78
2023/11/29 11:06:39;;;;;;;8.15;2.58;;;;;;;;;;5060548;28;20064;-78
2023/11/29 11:09:39;;;;;;;9.23;2.17;;;;;;;;;;5070797;28;20032;-78
2023/11/29 11:12:06;;;;;;;7.88;2.70;;;;;;;;;;5061327;28;20481;-78
2023/11/29 11:14:48;;;;;;;6.35;2.67;;;;;;;;;;5061817;28;20032;-78
2023/11/29 11:17:18;;;;;;;5.68;2.53;;;;;;;;;;5065372;28;20025;-78
2023/11/29 11:19:45;;;;;;;6.60;2.30;;;;;;;;;;5069696;28;20020;-78
2023/11/29 11:22:14;;;;;;;6.75;2.53;;;;;;;;;;5066144;28;20025;-78
2023/11/29 11:24:59;;;;;;;6.03;2.55;;;;;;;;;;5063157;28;20074;-78
2023/11/29 11:27:35;;;;;;;9.18;2.45;;;;;;;;;;5064044;28;20090;-83
2023/11/29 11:30:25;;;;;;;5.13;2.28;;;;;;;;;;5063657;28;20021;-83
2023/11/29 11:32:58;;;;;;;7.82;2.35;;;;;;;;;;5069380;28;20062;-83
2023/11/29 11:35:31;;;;;;;6.20;2.13;;;;;;;;;;5062806;28;20046;-83
2023/11/29 11:38:03;;;;;;;4.82;2.40;;;;;;;;;;5071008;28;20024;-83
2023/11/29 11:40:30;;;;;;;5.17;2.20;;;;;;;;;;5070799;28;20107;-82
2023/11/29 11:42:57;;;;;;;6.20;1.83;;;;;;;;;;5071029;28;20028;-83
2023/11/29 11:45:23;;;;;;;6.70;2.38;;;;;;;;;;5068637;28;20028;-83
2023/11/29 11:47:50;;;;;;;5.95;2.05;;;;;;;;;;5067078;28;20493;-83
2023/11/29 11:50:19;;;;;;;5.80;2.00;;;;;;;;;;5068741;28;20025;-83
2023/11/29 11:52:44;;;;;;;6.60;2.10;;;;;;;;;;5070301;28;20163;-83
2023/11/29 11:55:12;;;;;;;3.88;1.90;;;;;;;;;;5069627;28;20111;-83
2023/11/29 11:57:43;;;;;;;5.30;1.58;;;;;;;;;;5084547;28;20032;-83
2023/11/29 12:00:09;;;;;;;8.07;1.88;;;;;;;;;;5067759;28;20031;-84
2023/11/29 12:02:36;;;;;;;5.15;1.80;;;;;;;;;;5066377;28;20021;-83
2023/11/29 12:05:05;;;;;;;5.20;1.45;;;;;;;;;;5064387;28;20036;-83
2023/11/29 12:07:31;;;;;;;5.85;1.70;;;;;;;;;;5063547;28;20021;-79
2023/11/29 12:09:57;;;;;;;3.78;1.60;;;;;;;;;;5068904;28;20025;-78
2023/11/29 12:12:23;;;;;;;6.50;1.50;;;;;;;;;;5067970;28;20107;-78
2023/11/29 12:14:50;;;;;;;6.75;1.70;;;;;;;;;;5060226;28;20119;-78
2023/11/29 12:17:18;;;;;;;6.82;1.45;;;;;;;;;;5099034;28;20068;-78
2023/11/29 12:19:45;;;;;;;5.85;1.90;;;;;;;;;;5059249;28;20511;-78
2023/11/29 12:22:14;;;;;;;4.93;1.75;;;;;;;;;;5064003;28;20024;-78
2023/11/29 12:24:47;;;;;;;6.72;2.08;;;;;;;;;;5077422;28;20119;-78
2023/11/29 12:27:17;;;;;;;6.47;2.00;;;;;;;;;;5066809;28;20032;-78
2023/11/29 12:29:47;;;;;;;3.72;2.10;;;;;;;;;;5063177;28;20032;-79
2023/11/29 12:32:14;;;;;;;3.85;1.85;;;;;;;;;;5052396;28;20436;-78
2023/11/29 12:34:42;;;;;;;4.53;1.98;;;;;;;;;;5064680;28;20090;-78
2023/11/29 12:37:17;;;;;;;5.10;1.83;;;;;;;;;;5068569;28;20021;-83
2023/11/29 12:39:44;;;;;;;3.60;1.50;;;;;;;;;;5058777;28;20025;-83
2023/11/29 12:42:10;;;;;;;4.30;1.63;;;;;;;;;;5062197;28;20115;-83
2023/11/29 12:44:37;;;;;;;7.20;2.40;;;;;;;;;;5068335;28;20021;-83
2023/11/29 12:47:03;;;;;;;7.10;2.80;;;;;;;;;;5066668;28;20028;-83
2023/11/29 12:49:32;;;;;;;6.07;2.22;;;;;;;;;;5075030;28;20165;-83
2023/11/29 12:51:58;;;;;;;6.50;2.58;;;;;;;;;;5057689;28;20029;-83
2023/11/29 12:54:24;;;;;;;5.70;2.38;;;;;;;;;;5063762;28;20028;-83
2023/11/29 12:56:50;;;;;;;5.90;2.33;;;;;;;;;;5065233;28;20594;-83
2023/11/29 12:59:15;;;;;;;8.60;2.50;;;;;;;;;;5063688;28;20020;-83
2023/11/29 13:01:41;;;;;;;5.82;1.80;;;;;;;;;;5066760;28;20082;-83
2023/11/29 13:04:06;;;;;;;5.32;2.10;;;;;;;;;;5064659;28;20055;-83
2023/11/29 13:06:32;;;;;;;4.53;2.17;;;;;;;;;;5065730;28;20060;-83
2023/11/29 13:08:58;;;;;;;6.43;1.88;;;;;;;;;;5067199;28;20029;-83
2023/11/29 13:11:24;;;;;;;4.38;1.70;;;;;;;;;;5068534;28;20024;-83
2023/11/29 13:13:49;;;;;;;5.45;1.70;;;;;;;;;;5066960;28;20456;-83
2023/11/29 13:16:15;;;;;;;5.75;2.15;;;;;;;;;;5063067;28;20769;-83
2023/11/29 13:18:41;;;;;;;5.90;1.73;;;;;;;;;;5066672;28;20028;-83
2023/11/29 13:21:07;;;;;;;5.70;1.90;;;;;;;;;;5068420;28;20138;-83
2023/11/29 13:23:33;;;;;;;6.95;1.95;;;;;;;;;;5069782;28;20032;-83
2023/11/29 13:25:58;;;;;;;3.75;1.83;;;;;;;;;;5066234;28;20036;-83
2023/11/29 13:28:25;;;;;;;3.65;1.50;;;;;;;;;;5065737;28;20024;-83
2023/11/29 13:30:52;;;;;;;3.67;1.27;;;;;;;;;;5066629;28;20040;-83
2023/11/29 13:33:18;;;;;;;3.45;1.20;;;;;;;;;;5060480;28;20029;-83
2023/11/29 13:35:45;;;;;;;2.03;1.10;;;;;;;;;;5064873;28;20031;-83
2023/11/29 13:38:10;;;;;;;2.08;1.00;;;;;;;;;;5067707;28;20039;-83
2023/11/29 13:40:36;;;;;;;3.58;1.00;;;;;;;;;;5063762;28;20387;-83
2023/11/29 13:43:02;;;;;;;3.97;1.15;;;;;;;;;;5064511;28;20674;-83
2023/11/29 13:45:28;;;;;;;5.30;1.30;;;;;;;;;;5063871;28;20107;-83
2023/11/29 13:47:53;;;;;;;3.50;1.30;;;;;;;;;;5064036;28;20033;-83
2023/11/29 13:50:19;;;;;;;6.68;1.50;;;;;;;;;;5063003;28;20471;-82
2023/11/29 13:52:44;;;;;;;4.65;1.30;;;;;;;;;;5063868;28;20039;-83
2023/11/29 13:55:10;;;;;;;3.03;1.20;;;;;;;;;;5064966;28;20571;-83
2023/11/29 13:57:36;;;;;;;2.90;1.27;;;;;;;;;;5071846;28;20032;-83
2023/11/29 14:00:07;;;;;;;4.07;1.30;;;;;;;;;;5069703;28;20021;-83
2023/11/29 14:02:32;;;;;;;2.97;1.30;;;;;;;;;;5066538;28;20111;-83
2023/11/29 14:04:58;;;;;;;4.65;1.42;;;;;;;;;;5070247;28;20703;-83
2023/11/29 14:07:24;;;;;;;2.33;1.25;;;;;;;;;;5063177;28;20025;-83
2023/11/29 14:09:50;;;;;;;4.10;1.67;;;;;;;;;;5072297;28;20029;-82
2023/11/29 14:12:15;;;;;;;4.15;1.40;;;;;;;;;;5078597;28;20047;-83
2023/11/29 14:14:41;;;;;;;5.55;1.40;;;;;;;;;;5073291;28;20062;-82
2023/11/29 14:17:27;;;;;;;3.78;1.30;;;;;;;;;;5064250;28;20419;-82
2023/11/29 14:19:52;;;;;;;3.88;1.67;;;;;;;;;;5071533;28;20459;-81
2023/11/29 14:22:22;;;;;;;3.53;1.25;;;;;;;;;;5068230;28;20054;-81
2023/11/29 14:24:48;;;;;;;3.00;1.40;;;;;;;;;;5069134;28;20542;-81
2023/11/29 14:27:13;;;;;;;4.85;1.27;;;;;;;;;;5065844;28;20036;-82
2023/11/29 14:29:39;;;;;;;2.40;1.33;;;;;;;;;;5061348;28;20032;-81
2023/11/29 14:32:04;;;;;;;3.70;1.25;;;;;;;;;;5068060;28;20143;-81
2023/11/29 14:34:30;;;;;;;3.60;1.52;;;;;;;;;;5064676;28;20099;-81
2023/11/29 14:36:57;;;;;;;3.90;1.50;;;;;;;;;;5063963;28;20107;-81